sensor_id;sensor_type;location;lat;lon;timestamp;pressure;altitude;pressure_sealevel;temperature;humidity
69784;BME280;57054;51.978;4.498;2023-08-07T00:01:41;101442.03;;;13.51;97.76
69784;BME280;57054;51.978;4.498;2023-08-07T00:04:06;101442.91;;;13.52;97.69
69784;BME280;57054;51.978;4.498;2023-08-07T00:06:32;101441.13;;;13.52;97.74
69784;BME280;57054;51.978;4.498;2023-08-07T00:08:57;101440.28;;;13.52;97.57
69784;BME280;57054;51.978;4.498;2023-08-07T00:11:22;101466.59;;;13.52;97.09
69784;BME280;57054;51.978;4.498;2023-08-07T00:13:48;101479.75;;;13.52;97.75
69784;BME280;57054;51.978;4.498;2023-08-07T00:16:13;101478.03;;;13.51;98.41
69784;BME280;57054;51.978;4.498;2023-08-07T00:18:38;101475.38;;;13.51;98.69
69784;BME280;57054;51.978;4.498;2023-08-07T00:21:05;101456.19;;;13.49;98.66
69784;BME280;57054;51.978;4.498;2023-08-07T00:23:30;101457.16;;;13.46;98.45
69784;BME280;57054;51.978;4.498;2023-08-07T00:25:56;101463.53;;;13.40;97.79
69784;BME280;57054;51.978;4.498;2023-08-07T00:28:21;101454.00;;;13.38;97.74
69784;BME280;57054;51.978;4.498;2023-08-07T00:30:47;101454.06;;;13.36;98.05
69784;BME280;57054;51.978;4.498;2023-08-07T00:33:12;101457.66;;;13.35;98.27
69784;BME280;57054;51.978;4.498;2023-08-07T00:35:37;101451.50;;;13.35;98.69
69784;BME280;57054;51.978;4.498;2023-08-07T00:38:03;101455.06;;;13.34;99.24
69784;BME280;57054;51.978;4.498;2023-08-07T00:40:36;101460.41;;;13.32;99.82
69784;BME280;57054;51.978;4.498;2023-08-07T00:43:01;101462.19;;;13.32;100.00
69784;BME280;57054;51.978;4.498;2023-08-07T00:45:27;101464.84;;;13.30;100.00
69784;BME280;57054;51.978;4.498;2023-08-07T00:47:52;101467.44;;;13.32;100.00
69784;BME280;57054;51.978;4.498;2023-08-07T00:50:18;101466.56;;;13.31;100.00
69784;BME280;57054;51.978;4.498;2023-08-07T00:52:43;101452.50;;;13.32;100.00
69784;BME280;57054;51.978;4.498;2023-08-07T00:55:09;101461.25;;;13.33;100.00
69784;BME280;57054;51.978;4.498;2023-08-07T00:57:34;101462.03;;;13.35;100.00
69784;BME280;57054;51.978;4.498;2023-08-07T01:00:00;101461.19;;;13.34;100.00
69784;BME280;57054;51.978;4.498;2023-08-07T01:02:27;101458.59;;;13.33;99.29
69784;BME280;57054;51.978;4.498;2023-08-07T01:04:52;101455.97;;;13.33;98.77
69784;BME280;57054;51.978;4.498;2023-08-07T01:07:18;101474.41;;;13.33;98.70
69784;BME280;57054;51.978;4.498;2023-08-07T01:09:43;101463.81;;;13.34;98.96
69784;BME280;57054;51.978;4.498;2023-08-07T01:12:26;101462.97;;;13.34;98.97
69784;BME280;57054;51.978;4.498;2023-08-07T01:17:26;101462.09;;;13.33;98.18
69784;BME280;57054;51.978;4.498;2023-08-07T01:19:52;101465.59;;;13.34;97.71
69784;BME280;57054;51.978;4.498;2023-08-07T01:22:18;101473.50;;;13.34;97.51
69784;BME280;57054;51.978;4.498;2023-08-07T01:24:46;101466.50;;;13.33;96.20
69784;BME280;57054;51.978;4.498;2023-08-07T01:29:53;101461.13;;;13.36;96.54
69784;BME280;57054;51.978;4.498;2023-08-07T01:32:28;101468.06;;;13.37;96.63
69784;BME280;57054;51.978;4.498;2023-08-07T01:34:58;101462.91;;;13.35;95.94
69784;BME280;57054;51.978;4.498;2023-08-07T01:37:25;101467.22;;;13.36;95.90
69784;BME280;57054;51.978;4.498;2023-08-07T01:39:53;101464.53;;;13.38;96.40
69784;BME280;57054;51.978;4.498;2023-08-07T01:42:20;101467.16;;;13.38;96.64
69784;BME280;57054;51.978;4.498;2023-08-07T01:44:45;101475.06;;;13.38;96.29
69784;BME280;57054;51.978;4.498;2023-08-07T01:47:11;101482.03;;;13.39;96.38
69784;BME280;57054;51.978;4.498;2023-08-07T01:49:37;101476.78;;;13.39;96.61
69784;BME280;57054;51.978;4.498;2023-08-07T01:52:04;101468.00;;;13.38;96.16
69784;BME280;57054;51.978;4.498;2023-08-07T01:54:29;101469.78;;;13.38;95.14
69784;BME280;57054;51.978;4.498;2023-08-07T01:56:55;101475.06;;;13.38;94.62
69784;BME280;57054;51.978;4.498;2023-08-07T01:59:21;101476.84;;;13.37;93.84
69784;BME280;57054;51.978;4.498;2023-08-07T02:01:46;101479.41;;;13.39;94.24
69784;BME280;57054;51.978;4.498;2023-08-07T02:04:12;101476.78;;;13.39;94.54
69784;BME280;57054;51.978;4.498;2023-08-07T02:06:37;101470.66;;;13.38;95.08
69784;BME280;57054;51.978;4.498;2023-08-07T02:09:02;101476.78;;;13.39;94.78
69784;BME280;57054;51.978;4.498;2023-08-07T02:11:28;101471.53;;;13.39;94.79
69784;BME280;57054;51.978;4.498;2023-08-07T02:13:53;101484.69;;;13.39;94.75
69784;BME280;57054;51.978;4.498;2023-08-07T02:16:18;101479.41;;;13.39;94.81
69784;BME280;57054;51.978;4.498;2023-08-07T02:18:44;101480.31;;;13.38;93.30
69784;BME280;57054;51.978;4.498;2023-08-07T02:21:09;101480.31;;;13.38;93.57
69784;BME280;57054;51.978;4.498;2023-08-07T02:23:34;101482.03;;;13.39;93.62
69784;BME280;57054;51.978;4.498;2023-08-07T02:26:00;101481.16;;;13.38;93.05
69784;BME280;57054;51.978;4.498;2023-08-07T02:28:25;101487.31;;;13.39;92.59
69784;BME280;57054;51.978;4.498;2023-08-07T02:30:51;101482.03;;;13.39;93.17
69784;BME280;57054;51.978;4.498;2023-08-07T02:33:19;101474.94;;;13.41;93.39
69784;BME280;57054;51.978;4.498;2023-08-07T02:35:44;101481.03;;;13.41;93.84
69784;BME280;57054;51.978;4.498;2023-08-07T02:38:09;101483.75;;;13.40;93.64
69784;BME280;57054;51.978;4.498;2023-08-07T02:40:35;101479.31;;;13.40;94.01
69784;BME280;57054;51.978;4.498;2023-08-07T02:43:00;101481.09;;;13.40;94.11
69784;BME280;57054;51.978;4.498;2023-08-07T02:45:25;101490.72;;;13.41;94.08
69784;BME280;57054;51.978;4.498;2023-08-07T02:47:51;101472.31;;;13.41;94.48
69784;BME280;57054;51.978;4.498;2023-08-07T02:50:16;101479.31;;;13.40;94.45
69784;BME280;57054;51.978;4.498;2023-08-07T02:52:42;101482.84;;;13.41;94.42
69784;BME280;57054;51.978;4.498;2023-08-07T02:55:07;101495.09;;;13.40;94.23
69784;BME280;57054;51.978;4.498;2023-08-07T02:57:33;101513.47;;;13.42;95.30
69784;BME280;57054;51.978;4.498;2023-08-07T02:59:58;101503.81;;;13.42;96.50
69784;BME280;57054;51.978;4.498;2023-08-07T03:02:23;101494.25;;;13.40;96.91
69784;BME280;57054;51.978;4.498;2023-08-07T03:04:49;101489.00;;;13.40;97.75
69784;BME280;57054;51.978;4.498;2023-08-07T03:07:14;101488.22;;;13.38;98.15
69784;BME280;57054;51.978;4.498;2023-08-07T03:09:39;101492.56;;;13.39;98.80
69784;BME280;57054;51.978;4.498;2023-08-07T03:12:05;101494.38;;;13.37;99.27
69784;BME280;57054;51.978;4.498;2023-08-07T03:14:31;101491.75;;;13.37;99.45
69784;BME280;57054;51.978;4.498;2023-08-07T03:16:56;101495.25;;;13.37;99.52
69784;BME280;57054;51.978;4.498;2023-08-07T03:19:21;101493.47;;;13.38;99.80
69784;BME280;57054;51.978;4.498;2023-08-07T03:21:47;101484.78;;;13.36;100.00
69784;BME280;57054;51.978;4.498;2023-08-07T03:24:12;101492.63;;;13.37;99.87
69784;BME280;57054;51.978;4.498;2023-08-07T03:26:38;101500.59;;;13.36;100.00
69784;BME280;57054;51.978;4.498;2023-08-07T03:29:03;101497.94;;;13.36;100.00
69784;BME280;57054;51.978;4.498;2023-08-07T03:31:29;101492.75;;;13.34;99.76
69784;BME280;57054;51.978;4.498;2023-08-07T03:33:54;101504.13;;;13.35;100.00
69784;BME280;57054;51.978;4.498;2023-08-07T03:36:19;101502.38;;;13.35;100.00
69784;BME280;57054;51.978;4.498;2023-08-07T03:38:45;101492.69;;;13.36;100.00
69784;BME280;57054;51.978;4.498;2023-08-07T03:41:10;101491.84;;;13.35;100.00
69784;BME280;57054;51.978;4.498;2023-08-07T03:43:35;101497.00;;;13.37;100.00
69784;BME280;57054;51.978;4.498;2023-08-07T03:46:01;101497.94;;;13.36;100.00
69784;BME280;57054;51.978;4.498;2023-08-07T03:48:26;101496.22;;;13.35;100.00
69784;BME280;57054;51.978;4.498;2023-08-07T03:50:52;101491.84;;;13.35;100.00
69784;BME280;57054;51.978;4.498;2023-08-07T03:53:17;101496.09;;;13.38;100.00
69784;BME280;57054;51.978;4.498;2023-08-07T03:55:42;101485.59;;;13.38;100.00
69784;BME280;57054;51.978;4.498;2023-08-07T03:58:10;101486.44;;;13.38;100.00
69784;BME280;57054;51.978;4.498;2023-08-07T04:00:35;101493.41;;;13.39;100.00
69784;BME280;57054;51.978;4.498;2023-08-07T04:03:01;101488.16;;;13.39;100.00
69784;BME280;57054;51.978;4.498;2023-08-07T04:05:26;101487.31;;;13.39;100.00
69784;BME280;57054;51.978;4.498;2023-08-07T04:07:52;101489.00;;;13.40;100.00
69784;BME280;57054;51.978;4.498;2023-08-07T04:10:17;101483.75;;;13.40;100.00
69784;BME280;57054;51.978;4.498;2023-08-07T04:12:43;101488.16;;;13.39;100.00
69784;BME280;57054;51.978;4.498;2023-08-07T04:15:09;101495.09;;;13.40;100.00
69784;BME280;57054;51.978;4.498;2023-08-07T04:17:35;101487.22;;;13.40;100.00
69784;BME280;57054;51.978;4.498;2023-08-07T04:20:00;101491.63;;;13.40;100.00
69784;BME280;57054;51.978;4.498;2023-08-07T04:22:25;101495.03;;;13.42;100.00
69784;BME280;57054;51.978;4.498;2023-08-07T04:24:51;101481.03;;;13.41;100.00
69784;BME280;57054;51.978;4.498;2023-08-07T04:27:16;101496.00;;;13.41;100.00
69784;BME280;57054;51.978;4.498;2023-08-07T04:29:42;101489.78;;;13.42;99.30
69784;BME280;57054;51.978;4.498;2023-08-07T04:32:07;101496.00;;;13.41;98.62
69784;BME280;57054;51.978;4.498;2023-08-07T04:34:33;101495.09;;;13.40;97.86
69784;BME280;57054;51.978;4.498;2023-08-07T04:36:58;101497.69;;;13.42;97.99
69784;BME280;57054;51.978;4.498;2023-08-07T04:39:23;101498.56;;;13.42;97.78
69784;BME280;57054;51.978;4.498;2023-08-07T04:41:49;101504.66;;;13.43;97.95
69784;BME280;57054;51.978;4.498;2023-08-07T04:44:15;101509.00;;;13.44;97.92
69784;BME280;57054;51.978;4.498;2023-08-07T04:46:41;101513.41;;;13.43;97.40
69784;BME280;57054;51.978;4.498;2023-08-07T04:49:06;101513.41;;;13.43;97.21
69784;BME280;57054;51.978;4.498;2023-08-07T04:51:32;101515.19;;;13.43;96.92
69784;BME280;57054;51.978;4.498;2023-08-07T04:53:58;101517.88;;;13.41;96.13
69784;BME280;57054;51.978;4.498;2023-08-07T04:56:23;101519.66;;;13.41;95.87
69784;BME280;57054;51.978;4.498;2023-08-07T04:58:49;101531.88;;;13.42;96.39
69784;BME280;57054;51.978;4.498;2023-08-07T05:01:14;101526.63;;;13.42;96.00
69784;BME280;57054;51.978;4.498;2023-08-07T05:03:39;101516.16;;;13.40;95.01
69784;BME280;57054;51.978;4.498;2023-08-07T05:06:05;101521.41;;;13.40;94.76
69784;BME280;57054;51.978;4.498;2023-08-07T05:08:31;101526.69;;;13.40;94.91
69784;BME280;57054;51.978;4.498;2023-08-07T05:10:56;101528.41;;;13.41;95.27
69784;BME280;57054;51.978;4.498;2023-08-07T05:13:22;101533.72;;;13.40;95.63
69784;BME280;57054;51.978;4.498;2023-08-07T05:15:47;101535.50;;;13.39;95.08
69784;BME280;57054;51.978;4.498;2023-08-07T05:18:13;101536.34;;;13.40;95.33
69784;BME280;57054;51.978;4.498;2023-08-07T05:20:39;101531.88;;;13.42;95.51
69784;BME280;57054;51.978;4.498;2023-08-07T05:23:05;101539.00;;;13.40;95.73
69784;BME280;57054;51.978;4.498;2023-08-07T05:25:30;101539.03;;;13.38;95.50
69784;BME280;57054;51.978;4.498;2023-08-07T05:27:56;101534.56;;;13.40;95.47
69784;BME280;57054;51.978;4.498;2023-08-07T05:30:21;101528.47;;;13.40;95.85
69784;BME280;57054;51.978;4.498;2023-08-07T05:32:47;101533.72;;;13.40;95.59
69784;BME280;57054;51.978;4.498;2023-08-07T05:35:12;101533.72;;;13.40;95.75
69784;BME280;57054;51.978;4.498;2023-08-07T05:37:38;101531.94;;;13.40;95.25
69784;BME280;57054;51.978;4.498;2023-08-07T05:40:04;101540.72;;;13.41;95.09
69784;BME280;57054;51.978;4.498;2023-08-07T05:42:30;101543.34;;;13.41;95.66
69784;BME280;57054;51.978;4.498;2023-08-07T05:44:55;101551.25;;;13.41;95.02
69784;BME280;57054;51.978;4.498;2023-08-07T05:47:20;101543.34;;;13.41;94.81
69784;BME280;57054;51.978;4.498;2023-08-07T05:49:46;101534.56;;;13.40;94.74
69784;BME280;57054;51.978;4.498;2023-08-07T05:52:11;101548.59;;;13.41;94.99
69784;BME280;57054;51.978;4.498;2023-08-07T05:54:36;101551.19;;;13.42;94.93
69784;BME280;57054;51.978;4.498;2023-08-07T05:57:02;101555.50;;;13.43;95.32
69784;BME280;57054;51.978;4.498;2023-08-07T05:59:27;101564.25;;;13.44;95.45
69784;BME280;57054;51.978;4.498;2023-08-07T06:01:53;101561.56;;;13.46;96.20
69784;BME280;57054;51.978;4.498;2023-08-07T06:04:20;101569.44;;;13.46;95.97
69784;BME280;57054;51.978;4.498;2023-08-07T06:06:46;101568.53;;;13.47;95.90
69784;BME280;57054;51.978;4.498;2023-08-07T06:09:11;101562.28;;;13.49;95.46
69784;BME280;57054;51.978;4.498;2023-08-07T06:11:37;101564.00;;;13.50;95.35
69784;BME280;57054;51.978;4.498;2023-08-07T06:14:03;101573.59;;;13.51;94.95
69784;BME280;57054;51.978;4.498;2023-08-07T06:16:28;101571.84;;;13.52;94.65
69784;BME280;57054;51.978;4.498;2023-08-07T06:18:54;101579.66;;;13.53;95.18
69784;BME280;57054;51.978;4.498;2023-08-07T06:21:19;101576.13;;;13.54;95.24
69784;BME280;57054;51.978;4.498;2023-08-07T06:23:47;101578.75;;;13.54;95.06
69784;BME280;57054;51.978;4.498;2023-08-07T06:26:13;101577.91;;;13.54;95.20
69784;BME280;57054;51.978;4.498;2023-08-07T06:28:39;101578.75;;;13.54;94.15
69784;BME280;57054;51.978;4.498;2023-08-07T06:31:06;101575.25;;;13.54;93.90
69784;BME280;57054;51.978;4.498;2023-08-07T06:33:32;101580.53;;;13.54;93.69
69784;BME280;57054;51.978;4.498;2023-08-07T06:35:58;101589.28;;;13.54;93.43
69784;BME280;57054;51.978;4.498;2023-08-07T06:38:23;101595.31;;;13.56;93.81
69784;BME280;57054;51.978;4.498;2023-08-07T06:40:49;101590.91;;;13.57;94.15
69784;BME280;57054;51.978;4.498;2023-08-07T06:43:14;101596.13;;;13.58;93.40
69784;BME280;57054;51.978;4.498;2023-08-07T06:45:40;101591.63;;;13.60;93.33
69784;BME280;57054;51.978;4.498;2023-08-07T06:48:05;101600.34;;;13.62;93.35
69784;BME280;57054;51.978;4.498;2023-08-07T06:50:30;101603.00;;;13.62;94.28
69784;BME280;57054;51.978;4.498;2023-08-07T06:52:56;101606.41;;;13.65;93.15
69784;BME280;57054;51.978;4.498;2023-08-07T06:55:22;101603.72;;;13.66;92.76
69784;BME280;57054;51.978;4.498;2023-08-07T06:57:47;101600.16;;;13.67;91.98
69784;BME280;57054;51.978;4.498;2023-08-07T07:00:13;101612.31;;;13.70;92.66
69784;BME280;57054;51.978;4.498;2023-08-07T07:02:39;101604.28;;;13.73;92.58
69784;BME280;57054;51.978;4.498;2023-08-07T07:05:04;101611.34;;;13.72;92.52
69784;BME280;57054;51.978;4.498;2023-08-07T07:07:30;101614.75;;;13.74;92.50
69784;BME280;57054;51.978;4.498;2023-08-07T07:09:56;101617.47;;;13.73;91.45
69784;BME280;57054;51.978;4.498;2023-08-07T07:12:23;101616.56;;;13.74;91.01
69784;BME280;57054;51.978;4.498;2023-08-07T07:14:48;101623.47;;;13.76;90.10
69784;BME280;57054;51.978;4.498;2023-08-07T07:17:14;101627.81;;;13.77;90.43
69784;BME280;57054;51.978;4.498;2023-08-07T07:19:39;101624.25;;;13.78;89.70
69784;BME280;57054;51.978;4.498;2023-08-07T07:22:05;101632.88;;;13.82;89.21
69784;BME280;57054;51.978;4.498;2023-08-07T07:24:30;101628.47;;;13.82;89.47
69784;BME280;57054;51.978;4.498;2023-08-07T07:26:56;101630.22;;;13.82;89.13
69784;BME280;57054;51.978;4.498;2023-08-07T07:29:21;101627.59;;;13.82;89.41
69784;BME280;57054;51.978;4.498;2023-08-07T07:31:47;101635.50;;;13.82;89.40
69784;BME280;57054;51.978;4.498;2023-08-07T07:34:12;101647.75;;;13.83;89.77
69784;BME280;57054;51.978;4.498;2023-08-07T07:36:37;101644.19;;;13.84;89.09
69784;BME280;57054;51.978;4.498;2023-08-07T07:39:03;101638.94;;;13.84;88.72
69784;BME280;57054;51.978;4.498;2023-08-07T07:41:28;101639.00;;;13.82;88.91
69784;BME280;57054;51.978;4.498;2023-08-07T07:43:54;101643.34;;;13.83;88.69
69784;BME280;57054;51.978;4.498;2023-08-07T07:46:22;101638.88;;;13.86;88.58
69784;BME280;57054;51.978;4.498;2023-08-07T07:48:48;101636.16;;;13.87;88.94
69784;BME280;57054;51.978;4.498;2023-08-07T07:51:14;101645.72;;;13.90;89.20
69784;BME280;57054;51.978;4.498;2023-08-07T07:53:39;101655.28;;;13.92;89.16
69784;BME280;57054;51.978;4.498;2023-08-07T07:56:04;101649.16;;;13.92;88.75
69784;BME280;57054;51.978;4.498;2023-08-07T07:58:30;101658.75;;;13.93;87.88
69784;BME280;57054;51.978;4.498;2023-08-07T08:00:56;101671.91;;;13.93;87.88
69784;BME280;57054;51.978;4.498;2023-08-07T08:03:21;101667.50;;;13.93;88.28
69784;BME280;57054;51.978;4.498;2023-08-07T08:05:50;101676.22;;;13.95;88.40
69784;BME280;57054;51.978;4.498;2023-08-07T08:08:16;101676.22;;;13.95;88.92
69784;BME280;57054;51.978;4.498;2023-08-07T08:10:42;101672.66;;;13.96;88.12
69784;BME280;57054;51.978;4.498;2023-08-07T08:13:10;101670.88;;;13.97;86.41
69784;BME280;57054;51.978;4.498;2023-08-07T08:15:36;101672.59;;;13.98;84.42
69784;BME280;57054;51.978;4.498;2023-08-07T08:18:01;101679.50;;;14.00;85.34
69784;BME280;57054;51.978;4.498;2023-08-07T08:20:27;101680.22;;;14.04;85.64
69784;BME280;57054;51.978;4.498;2023-08-07T08:22:52;101681.88;;;14.07;85.54
69784;BME280;57054;51.978;4.498;2023-08-07T08:25:18;101698.47;;;14.09;86.00
69784;BME280;57054;51.978;4.498;2023-08-07T08:27:43;101690.47;;;14.12;85.29
69784;BME280;57054;51.978;4.498;2023-08-07T08:30:09;101690.31;;;14.15;85.66
69784;BME280;57054;51.978;4.498;2023-08-07T08:32:35;101700.00;;;14.14;84.78
69784;BME280;57054;51.978;4.498;2023-08-07T08:35:00;101697.31;;;14.16;84.68
69784;BME280;57054;51.978;4.498;2023-08-07T08:37:27;101706.06;;;14.16;84.45
69784;BME280;57054;51.978;4.498;2023-08-07T08:39:53;101708.69;;;14.16;84.59
69784;BME280;57054;51.978;4.498;2023-08-07T08:42:19;101710.41;;;14.17;84.31
69784;BME280;57054;51.978;4.498;2023-08-07T08:44:55;101718.31;;;14.17;84.52
69784;BME280;57054;51.978;4.498;2023-08-07T08:47:25;101718.31;;;14.17;84.56
69784;BME280;57054;51.978;4.498;2023-08-07T08:50:16;101715.69;;;14.17;84.18
69784;BME280;57054;51.978;4.498;2023-08-07T08:52:42;101727.91;;;14.18;83.05
69784;BME280;57054;51.978;4.498;2023-08-07T08:55:09;101750.66;;;14.21;83.56
69784;BME280;57054;51.978;4.498;2023-08-07T08:57:35;101724.16;;;14.24;81.51
69784;BME280;57054;51.978;4.498;2023-08-07T09:00:01;101717.09;;;14.26;82.43
69784;BME280;57054;51.978;4.498;2023-08-07T09:02:29;101716.16;;;14.27;82.36
69784;BME280;57054;51.978;4.498;2023-08-07T09:04:55;101724.00;;;14.29;82.33
69784;BME280;57054;51.978;4.498;2023-08-07T09:07:21;101718.66;;;14.30;81.90
69784;BME280;57054;51.978;4.498;2023-08-07T09:09:49;101717.72;;;14.31;82.47
69784;BME280;57054;51.978;4.498;2023-08-07T09:12:25;101731.69;;;14.33;83.17
69784;BME280;57054;51.978;4.498;2023-08-07T09:14:56;101732.56;;;14.34;83.36
69784;BME280;57054;51.978;4.498;2023-08-07T09:17:28;101741.38;;;14.33;83.29
69784;BME280;57054;51.978;4.498;2023-08-07T09:19:56;101741.38;;;14.33;83.42
69784;BME280;57054;51.978;4.498;2023-08-07T09:22:22;101728.19;;;14.33;84.34
69784;BME280;57054;51.978;4.498;2023-08-07T09:24:47;101739.59;;;14.33;84.55
69784;BME280;57054;51.978;4.498;2023-08-07T09:27:13;101743.94;;;14.34;83.79
69784;BME280;57054;51.978;4.498;2023-08-07T09:29:43;101745.53;;;14.38;83.09
69784;BME280;57054;51.978;4.498;2023-08-07T09:32:11;101752.41;;;14.43;83.72
69784;BME280;57054;51.978;4.498;2023-08-07T09:34:39;101743.56;;;14.44;83.07
69784;BME280;57054;51.978;4.498;2023-08-07T09:37:04;101746.94;;;14.47;82.23
69784;BME280;57054;51.978;4.498;2023-08-07T09:39:30;101737.16;;;14.49;82.11
69784;BME280;57054;51.978;4.498;2023-08-07T09:41:55;101745.88;;;14.51;81.94
69784;BME280;57054;51.978;4.498;2023-08-07T09:44:21;101750.22;;;14.52;82.25
69784;BME280;57054;51.978;4.498;2023-08-07T09:46:46;101743.16;;;14.53;82.11
69784;BME280;57054;51.978;4.498;2023-08-07T09:49:12;101757.19;;;14.53;82.48
69784;BME280;57054;51.978;4.498;2023-08-07T09:51:44;101746.59;;;14.55;82.05
69784;BME280;57054;51.978;4.498;2023-08-07T09:54:10;101750.09;;;14.55;82.10
69784;BME280;57054;51.978;4.498;2023-08-07T09:56:37;101760.56;;;14.57;81.63
69784;BME280;57054;51.978;4.498;2023-08-07T09:59:03;101763.16;;;14.58;81.36
69784;BME280;57054;51.978;4.498;2023-08-07T10:01:29;101759.56;;;14.61;80.92
69784;BME280;57054;51.978;4.498;2023-08-07T10:03:54;101765.63;;;14.63;81.35
69784;BME280;57054;51.978;4.498;2023-08-07T10:06:20;101764.69;;;14.64;80.77
69784;BME280;57054;51.978;4.498;2023-08-07T10:08:46;101778.59;;;14.68;80.80
69784;BME280;57054;51.978;4.498;2023-08-07T10:11:12;101765.41;;;14.68;79.29
69784;BME280;57054;51.978;4.498;2023-08-07T10:13:40;101764.44;;;14.70;78.55
69784;BME280;57054;51.978;4.498;2023-08-07T10:16:06;101766.13;;;14.71;79.00
69784;BME280;57054;51.978;4.498;2023-08-07T10:18:32;101766.06;;;14.73;79.74
69784;BME280;57054;51.978;4.498;2023-08-07T10:20:57;101761.63;;;14.73;80.10
69784;BME280;57054;51.978;4.498;2023-08-07T10:23:23;101770.38;;;14.75;80.37
69784;BME280;57054;51.978;4.498;2023-08-07T10:25:49;101767.72;;;14.75;78.43
69784;BME280;57054;51.978;4.498;2023-08-07T10:28:17;101775.41;;;14.80;78.41
69784;BME280;57054;51.978;4.498;2023-08-07T10:30:44;101768.31;;;14.82;78.99
69784;BME280;57054;51.978;4.498;2023-08-07T10:33:10;101779.56;;;14.86;79.44
69784;BME280;57054;51.978;4.498;2023-08-07T10:35:37;101773.38;;;14.87;79.33
69784;BME280;57054;51.978;4.498;2023-08-07T10:38:07;101772.38;;;14.89;79.46
69784;BME280;57054;51.978;4.498;2023-08-07T10:43:30;101777.47;;;14.94;80.11
69784;BME280;57054;51.978;4.498;2023-08-07T10:46:03;101789.72;;;14.95;78.40
69784;BME280;57054;51.978;4.498;2023-08-07T10:48:29;101780.81;;;14.97;78.45
69784;BME280;57054;51.978;4.498;2023-08-07T10:53:30;101788.47;;;15.04;79.80
69784;BME280;57054;51.978;4.498;2023-08-07T10:55:56;101785.75;;;15.05;80.36
69784;BME280;57054;51.978;4.498;2023-08-07T11:01:17;101778.50;;;15.10;80.54
69784;BME280;57054;51.978;4.498;2023-08-07T11:03:55;101784.50;;;15.14;78.97
69784;BME280;57054;51.978;4.498;2023-08-07T11:06:25;101780.00;;;15.16;78.55
69784;BME280;57054;51.978;4.498;2023-08-07T11:08:52;101792.19;;;15.19;78.70
69784;BME280;57054;51.978;4.498;2023-08-07T11:11:17;101791.22;;;15.21;78.95
69784;BME280;57054;51.978;4.498;2023-08-07T11:13:43;101792.00;;;15.23;78.63
69784;BME280;57054;51.978;4.498;2023-08-07T11:16:09;101795.47;;;15.24;76.45
69784;BME280;57054;51.978;4.498;2023-08-07T11:18:34;101791.06;;;15.24;76.06
69784;BME280;57054;51.978;4.498;2023-08-07T11:21:01;101792.78;;;15.25;75.46
69784;BME280;57054;51.978;4.498;2023-08-07T11:23:27;101787.44;;;15.27;76.71
69784;BME280;57054;51.978;4.498;2023-08-07T11:25:52;101785.66;;;15.27;76.96
69784;BME280;57054;51.978;4.498;2023-08-07T11:28:19;101796.06;;;15.30;77.35
69784;BME280;57054;51.978;4.498;2023-08-07T11:30:48;101791.56;;;15.32;77.51
69784;BME280;57054;51.978;4.498;2023-08-07T11:33:14;101785.28;;;15.35;77.99
69784;BME280;57054;51.978;4.498;2023-08-07T11:35:43;101783.44;;;15.37;76.89
69784;BME280;57054;51.978;4.498;2023-08-07T11:38:08;101790.38;;;15.40;77.66
69784;BME280;57054;51.978;4.498;2023-08-07T11:40:34;101785.81;;;15.43;78.13
69784;BME280;57054;51.978;4.498;2023-08-07T11:43:00;101794.50;;;15.45;78.58
69784;BME280;57054;51.978;4.498;2023-08-07T11:45:25;101792.72;;;15.46;79.25
69784;BME280;57054;51.978;4.498;2023-08-07T11:47:51;101789.16;;;15.47;79.09
69784;BME280;57054;51.978;4.498;2023-08-07T11:50:17;101788.22;;;15.48;79.03
69784;BME280;57054;51.978;4.498;2023-08-07T11:52:42;101796.00;;;15.51;79.46
69784;BME280;57054;51.978;4.498;2023-08-07T11:55:08;101787.25;;;15.50;79.72
69784;BME280;57054;51.978;4.498;2023-08-07T11:57:37;101792.47;;;15.52;79.90
69784;BME280;57054;51.978;4.498;2023-08-07T12:00:06;101788.88;;;15.53;78.90
69784;BME280;57054;51.978;4.498;2023-08-07T12:02:35;101794.94;;;15.55;78.04
69784;BME280;57054;51.978;4.498;2023-08-07T12:05:00;101794.94;;;15.55;78.35
69784;BME280;57054;51.978;4.498;2023-08-07T12:07:27;101792.22;;;15.57;78.60
69784;BME280;57054;51.978;4.498;2023-08-07T12:09:53;101795.72;;;15.57;78.69
69784;BME280;57054;51.978;4.498;2023-08-07T12:12:19;101792.22;;;15.57;78.89
69784;BME280;57054;51.978;4.498;2023-08-07T12:14:45;101794.00;;;15.56;79.07
69784;BME280;57054;51.978;4.498;2023-08-07T12:17:11;101795.81;;;15.55;79.32
69784;BME280;57054;51.978;4.498;2023-08-07T12:19:39;101789.75;;;15.53;79.81
69784;BME280;57054;51.978;4.498;2023-08-07T12:22:10;101789.81;;;15.52;78.82
69784;BME280;57054;51.978;4.498;2023-08-07T12:24:36;101790.66;;;15.52;79.47
69784;BME280;57054;51.978;4.498;2023-08-07T12:27:03;101797.75;;;15.52;79.71
69784;BME280;57054;51.978;4.498;2023-08-07T12:29:29;101795.94;;;15.52;80.18
69784;BME280;57054;51.978;4.498;2023-08-07T12:31:55;101786.28;;;15.51;80.09
69784;BME280;57054;51.978;4.498;2023-08-07T12:34:20;101789.81;;;15.52;80.57
69784;BME280;57054;51.978;4.498;2023-08-07T12:36:46;101783.59;;;15.53;81.59
69784;BME280;57054;51.978;4.498;2023-08-07T12:39:12;101787.97;;;15.54;81.82
69784;BME280;57054;51.978;4.498;2023-08-07T12:41:37;101790.53;;;15.55;82.33
69784;BME280;57054;51.978;4.498;2023-08-07T12:44:03;101791.38;;;15.56;82.70
69784;BME280;57054;51.978;4.498;2023-08-07T12:46:28;101798.34;;;15.57;82.97
69784;BME280;57054;51.978;4.498;2023-08-07T12:48:54;101789.59;;;15.57;83.22
69784;BME280;57054;51.978;4.498;2023-08-07T12:51:19;101796.66;;;15.56;83.27
69784;BME280;57054;51.978;4.498;2023-08-07T12:53:45;101801.94;;;15.56;83.67
69784;BME280;57054;51.978;4.498;2023-08-07T12:56:10;101798.34;;;15.57;84.56